Time;durP1;ratioP1;P1;durP2;ratioP2;P2;SDS_P1;SDS_P2;PMS_P1;PMS_P2;Temp;Humidity;BMP_temperature;BMP_pressure;BME280_temperature;BME280_humidity;BME280_pressure;Samples;Min_cycle;Max_cycle;Signal;HPM_P1;HPM_P2
2023/12/28 00:02:02;;;;;;;5.10;3.00;;;1.90;99.90;;;;;;5000161;28;20093;-84
2023/12/28 00:04:28;;;;;;;4.60;2.83;;;2.00;99.90;;;;;;5001258;28;20041;-84
2023/12/28 00:06:53;;;;;;;4.80;2.80;;;2.00;99.90;;;;;;4999532;28;20030;-84
2023/12/28 00:09:19;;;;;;;7.20;3.20;;;2.10;99.90;;;;;;4999638;28;20040;-84
2023/12/28 00:11:44;;;;;;;5.20;3.00;;;2.20;99.90;;;;;;4979705;28;20721;-84
2023/12/28 00:14:10;;;;;;;5.10;3.30;;;2.20;99.90;;;;;;4998453;28;20042;-84
2023/12/28 00:16:37;;;;;;;5.63;3.13;;;2.30;99.90;;;;;;4998443;28;20041;-85
2023/12/28 00:19:03;;;;;;;5.40;3.03;;;2.30;99.90;;;;;;5000324;28;20034;-84
2023/12/28 00:21:29;;;;;;;4.97;2.57;;;2.40;99.90;;;;;;5000801;28;20034;-84
2023/12/28 00:23:55;;;;;;;6.30;2.87;;;2.40;99.90;;;;;;4999957;28;20031;-84
2023/12/28 00:26:21;;;;;;;5.40;2.67;;;2.50;99.90;;;;;;4997993;28;20034;-84
2023/12/28 00:28:47;;;;;;;5.53;2.80;;;2.50;99.90;;;;;;4999617;28;20084;-85
2023/12/28 00:31:12;;;;;;;4.63;2.70;;;2.50;99.90;;;;;;5000502;28;20097;-84
2023/12/28 00:33:38;;;;;;;5.07;3.10;;;2.50;99.90;;;;;;5001377;28;20112;-84
2023/12/28 00:36:04;;;;;;;5.57;2.90;;;2.50;99.90;;;;;;4999275;28;20400;-85
2023/12/28 00:38:29;;;;;;;5.03;3.03;;;2.50;99.90;;;;;;4998168;28;20101;-84
2023/12/28 00:40:55;;;;;;;5.70;2.80;;;2.40;99.90;;;;;;4999000;28;20034;-84
2023/12/28 00:43:20;;;;;;;4.73;2.93;;;2.40;99.90;;;;;;4980692;28;20046;-84
2023/12/28 00:45:46;;;;;;;4.47;2.50;;;2.30;99.90;;;;;;4999348;28;20034;-84
2023/12/28 00:48:11;;;;;;;5.90;3.10;;;2.30;99.90;;;;;;4999819;28;20030;-84
2023/12/28 00:50:37;;;;;;;5.17;3.00;;;2.20;99.90;;;;;;5000877;28;20050;-84
2023/12/28 00:53:03;;;;;;;6.10;2.63;;;2.20;99.90;;;;;;5000074;28;20048;-84
2023/12/28 00:55:28;;;;;;;4.03;2.70;;;2.20;99.90;;;;;;5000276;28;20041;-85
2023/12/28 00:57:54;;;;;;;6.00;2.80;;;2.20;99.90;;;;;;4997407;28;20061;-84
2023/12/28 01:00:19;;;;;;;4.90;2.70;;;2.20;99.90;;;;;;4999014;28;20040;-85
2023/12/28 01:02:46;;;;;;;3.33;2.30;;;2.20;99.90;;;;;;4999777;28;20041;-85
2023/12/28 01:05:13;;;;;;;4.90;2.53;;;2.20;99.90;;;;;;4997565;28;20034;-84
2023/12/28 01:07:38;;;;;;;3.80;2.20;;;2.20;99.90;;;;;;5000634;28;21328;-84
2023/12/28 01:10:04;;;;;;;5.77;3.00;;;2.30;99.90;;;;;;5000232;28;20038;-85
2023/12/28 01:12:30;;;;;;;5.30;2.40;;;2.30;99.90;;;;;;4982078;28;20045;-84
2023/12/28 01:14:55;;;;;;;4.00;2.30;;;2.30;99.90;;;;;;4997118;28;20074;-84
2023/12/28 01:17:21;;;;;;;4.27;2.47;;;2.30;99.90;;;;;;4999295;28;20054;-85
2023/12/28 01:19:46;;;;;;;4.90;2.40;;;2.40;99.90;;;;;;4998728;28;20118;-84
2023/12/28 01:22:12;;;;;;;5.00;2.57;;;2.40;99.90;;;;;;5001183;28;20030;-84
2023/12/28 01:24:38;;;;;;;4.87;2.30;;;2.40;99.90;;;;;;4999073;28;20058;-84
2023/12/28 01:27:03;;;;;;;6.70;2.50;;;2.30;99.90;;;;;;4994487;28;20035;-85
2023/12/28 01:29:29;;;;;;;4.63;2.00;;;2.40;99.90;;;;;;4997477;28;20041;-84
2023/12/28 01:31:54;;;;;;;4.53;2.50;;;2.40;99.90;;;;;;4999774;28;20065;-84
2023/12/28 01:34:20;;;;;;;3.90;2.20;;;2.50;99.90;;;;;;4998192;28;20068;-84
2023/12/28 01:36:45;;;;;;;3.93;2.20;;;2.50;99.90;;;;;;4996870;28;20046;-84
2023/12/28 01:39:11;;;;;;;5.30;2.50;;;2.50;99.90;;;;;;4997814;28;20036;-85
2023/12/28 01:41:37;;;;;;;5.00;2.73;;;2.40;99.90;;;;;;4998800;28;20056;-84
2023/12/28 01:44:02;;;;;;;3.47;2.13;;;2.50;99.90;;;;;;4999353;28;20053;-84
2023/12/28 01:46:28;;;;;;;5.20;2.57;;;2.50;99.90;;;;;;4998702;28;20632;-84
2023/12/28 01:48:55;;;;;;;4.03;2.50;;;2.50;99.90;;;;;;4981355;28;20033;-84
2023/12/28 01:51:22;;;;;;;8.10;2.63;;;2.50;99.90;;;;;;4998385;28;20515;-84
2023/12/28 01:53:49;;;;;;;4.27;2.60;;;2.50;99.90;;;;;;4981420;28;20510;-84
2023/12/28 01:56:15;;;;;;;5.10;2.40;;;2.50;99.90;;;;;;4996622;28;20057;-84
2023/12/28 01:58:43;;;;;;;4.43;2.60;;;2.60;99.90;;;;;;4999851;28;20061;-84
2023/12/28 02:01:10;;;;;;;5.00;2.30;;;2.60;99.90;;;;;;4997315;28;20026;-84
2023/12/28 02:03:36;;;;;;;3.83;2.27;;;2.60;99.90;;;;;;4980867;28;20972;-84
2023/12/28 02:06:03;;;;;;;6.00;2.63;;;2.60;99.90;;;;;;4997155;28;20083;-84
2023/12/28 02:08:29;;;;;;;4.67;2.63;;;2.60;99.90;;;;;;4999008;28;20030;-84
2023/12/28 02:10:57;;;;;;;5.20;2.17;;;2.50;99.90;;;;;;4979586;28;20097;-84
2023/12/28 02:13:23;;;;;;;6.17;2.57;;;2.50;99.90;;;;;;4997483;28;20441;-83
2023/12/28 02:16:01;;;;;;;4.57;2.40;;;2.40;99.90;;;;;;4995463;28;20034;-84
2023/12/28 02:18:37;;;;;;;6.03;3.03;;;2.40;99.90;;;;;;4997357;28;20500;-84
2023/12/28 02:21:05;;;;;;;19.50;8.03;;;2.30;99.90;;;;;;4996938;28;20214;-84
2023/12/28 02:23:33;;;;;;;14.07;5.80;;;2.30;99.90;;;;;;4998169;28;20037;-84
2023/12/28 02:25:58;;;;;;;8.20;3.23;;;2.20;99.90;;;;;;4980351;28;20050;-84
2023/12/28 02:28:24;;;;;;;6.50;3.23;;;2.20;99.90;;;;;;4996565;28;20055;-84
2023/12/28 02:30:49;;;;;;;4.90;3.00;;;2.20;99.90;;;;;;4998147;28;20050;-84
2023/12/28 02:33:41;;;;;;;4.47;2.50;;;2.10;99.90;;;;;;4997343;28;20034;-83
2023/12/28 02:36:10;;;;;;;4.10;2.50;;;2.10;99.90;;;;;;4979853;28;20157;-85
2023/12/28 02:38:38;;;;;;;4.90;2.67;;;2.10;99.90;;;;;;4997089;28;20053;-84
2023/12/28 02:41:04;;;;;;;4.43;2.50;;;2.20;99.90;;;;;;4999020;28;20100;-84
2023/12/28 02:43:30;;;;;;;4.13;2.67;;;2.20;99.90;;;;;;4995936;28;20031;-84
2023/12/28 02:45:55;;;;;;;4.23;2.47;;;2.20;99.90;;;;;;4996537;28;20564;-84
2023/12/28 02:48:21;;;;;;;4.00;2.10;;;2.20;99.90;;;;;;4996362;28;20633;-84
2023/12/28 02:50:46;;;;;;;7.40;2.53;;;2.20;99.90;;;;;;4996359;28;20030;-84
2023/12/28 02:53:13;;;;;;;6.67;2.73;;;2.20;99.90;;;;;;4997392;28;20042;-84
2023/12/28 02:55:38;;;;;;;4.37;2.53;;;2.30;99.90;;;;;;4996319;28;20030;-84
2023/12/28 02:58:04;;;;;;;4.00;2.20;;;2.30;99.90;;;;;;4996646;28;20034;-84
2023/12/28 03:00:29;;;;;;;5.10;2.70;;;2.30;99.90;;;;;;4995489;28;20070;-84
2023/12/28 03:02:55;;;;;;;6.23;2.70;;;2.40;99.90;;;;;;4998338;28;20026;-84
2023/12/28 03:05:21;;;;;;;5.97;2.67;;;2.40;99.90;;;;;;4996208;28;20030;-84
2023/12/28 03:07:46;;;;;;;5.30;2.83;;;2.40;99.90;;;;;;4995234;28;20030;-85
2023/12/28 03:10:12;;;;;;;5.00;2.73;;;2.30;99.90;;;;;;4997300;28;20101;-84
2023/12/28 03:12:37;;;;;;;3.93;2.40;;;2.30;99.90;;;;;;4996604;28;20704;-84
2023/12/28 03:15:04;;;;;;;3.73;2.40;;;2.20;99.90;;;;;;5002282;28;20022;-84
2023/12/28 03:17:30;;;;;;;3.60;2.40;;;2.20;99.90;;;;;;4996938;28;20173;-84
2023/12/28 03:19:56;;;;;;;6.13;2.60;;;2.20;99.90;;;;;;4997984;28;20030;-84
2023/12/28 03:22:22;;;;;;;5.03;2.33;;;2.20;99.90;;;;;;4997388;28;20040;-84
2023/12/28 03:24:48;;;;;;;3.10;2.03;;;2.20;99.90;;;;;;4994818;28;20120;-84
2023/12/28 03:27:14;;;;;;;8.13;2.57;;;2.20;99.90;;;;;;4996836;28;20034;-85
2023/12/28 03:29:41;;;;;;;3.30;2.27;;;2.20;99.90;;;;;;4997041;28;20038;-84
2023/12/28 03:32:06;;;;;;;7.23;2.43;;;2.30;99.90;;;;;;4996454;28;20220;-84
2023/12/28 03:34:32;;;;;;;3.17;2.10;;;2.40;99.90;;;;;;4997618;28;20512;-84
2023/12/28 03:36:58;;;;;;;3.23;1.87;;;2.50;99.90;;;;;;4997981;28;20032;-84
2023/12/28 03:39:24;;;;;;;2.40;1.60;;;2.60;99.90;;;;;;4997997;28;20034;-84
2023/12/28 03:41:50;;;;;;;3.73;1.97;;;2.70;99.90;;;;;;4995996;28;20504;-84
2023/12/28 03:44:15;;;;;;;3.67;1.97;;;2.80;99.90;;;;;;4995420;28;20125;-84
2023/12/28 03:46:41;;;;;;;2.90;1.73;;;2.90;99.90;;;;;;4995987;28;20038;-84
2023/12/28 03:49:06;;;;;;;5.00;1.90;;;3.00;99.90;;;;;;4998101;28;20141;-84
2023/12/28 03:51:32;;;;;;;3.20;1.67;;;3.00;99.90;;;;;;4997141;28;20038;-84
2023/12/28 03:53:57;;;;;;;5.03;2.00;;;3.10;99.90;;;;;;4996645;28;20208;-84
2023/12/28 03:56:25;;;;;;;2.00;1.20;;;3.20;99.90;;;;;;4996211;28;20478;-84
2023/12/28 03:58:51;;;;;;;3.17;1.40;;;3.20;99.90;;;;;;4978746;28;20034;-84
2023/12/28 04:01:21;;;;;;;1.77;1.10;;;3.30;99.90;;;;;;4996963;28;20061;-84
2023/12/28 04:03:47;;;;;;;2.30;1.30;;;3.40;99.90;;;;;;5002399;28;20103;-84
2023/12/28 04:06:14;;;;;;;1.80;1.10;;;3.50;99.90;;;;;;5002819;28;20034;-84
2023/12/28 04:08:40;;;;;;;2.07;1.40;;;3.60;99.90;;;;;;5002199;28;20050;-84
2023/12/28 04:11:07;;;;;;;2.20;1.50;;;3.70;99.90;;;;;;5000391;28;20056;-84
2023/12/28 04:13:32;;;;;;;1.93;1.20;;;3.70;99.90;;;;;;5000783;28;20105;-84
2023/12/28 04:15:58;;;;;;;2.00;1.20;;;3.70;99.90;;;;;;5001029;28;20042;-84
2023/12/28 04:18:23;;;;;;;2.23;1.40;;;3.70;99.90;;;;;;4999199;28;20042;-85
2023/12/28 04:20:49;;;;;;;3.23;1.20;;;3.70;99.90;;;;;;4984631;28;20056;-84
2023/12/28 04:23:15;;;;;;;1.80;1.30;;;3.80;99.90;;;;;;5000789;28;20030;-85
2023/12/28 04:25:41;;;;;;;3.03;1.30;;;3.80;99.90;;;;;;4998973;28;20025;-84
2023/12/28 04:28:07;;;;;;;2.43;1.50;;;3.90;99.90;;;;;;5000205;28;21483;-85
2023/12/28 04:30:33;;;;;;;2.10;1.37;;;3.80;99.90;;;;;;5000063;28;20082;-84
2023/12/28 04:32:58;;;;;;;1.70;1.30;;;3.80;99.90;;;;;;5001091;28;20061;-84
2023/12/28 04:35:24;;;;;;;3.53;1.50;;;3.70;99.90;;;;;;5000434;28;20081;-84
2023/12/28 04:37:49;;;;;;;2.60;1.40;;;3.60;99.90;;;;;;5000785;28;20045;-84
2023/12/28 04:40:15;;;;;;;2.73;1.40;;;3.50;99.90;;;;;;4999850;28;20042;-84
2023/12/28 04:42:41;;;;;;;1.73;1.43;;;3.40;99.90;;;;;;4999843;28;20035;-84
2023/12/28 04:45:07;;;;;;;3.27;1.67;;;3.30;99.90;;;;;;4999549;28;20080;-85
2023/12/28 04:47:32;;;;;;;3.83;1.60;;;3.20;99.90;;;;;;5000153;28;20030;-84
2023/12/28 04:49:58;;;;;;;2.17;1.70;;;3.20;99.90;;;;;;5000930;28;20387;-84
2023/12/28 04:52:23;;;;;;;3.60;1.70;;;3.10;99.90;;;;;;5000279;28;20053;-85
2023/12/28 04:54:49;;;;;;;2.50;1.73;;;3.10;99.90;;;;;;4999997;28;20037;-83
2023/12/28 04:57:15;;;;;;;2.93;1.63;;;3.00;99.90;;;;;;4998228;28;20049;-84
2023/12/28 04:59:40;;;;;;;4.90;2.17;;;3.00;99.90;;;;;;5001869;28;20050;-84
2023/12/28 05:02:06;;;;;;;4.03;2.30;;;2.90;99.90;;;;;;4999752;28;20132;-84
2023/12/28 05:04:32;;;;;;;4.57;2.10;;;2.80;99.90;;;;;;4998706;28;20117;-84
2023/12/28 05:06:58;;;;;;;2.33;1.43;;;2.70;99.90;;;;;;4998816;28;20069;-84
2023/12/28 05:09:23;;;;;;;3.50;1.60;;;2.70;99.90;;;;;;4999399;28;21221;-83
2023/12/28 05:11:49;;;;;;;4.37;2.40;;;2.60;99.90;;;;;;4998390;28;20550;-84
2023/12/28 05:14:14;;;;;;;7.10;3.80;;;2.50;99.90;;;;;;4980669;28;20030;-84
2023/12/28 05:16:40;;;;;;;5.20;2.50;;;2.50;99.90;;;;;;4997330;28;20148;-85
2023/12/28 05:19:05;;;;;;;3.77;2.13;;;2.40;99.90;;;;;;4998095;28;20041;-84
2023/12/28 05:21:31;;;;;;;5.53;1.90;;;2.40;99.90;;;;;;4999024;28;20029;-84
2023/12/28 05:23:56;;;;;;;7.10;1.70;;;2.30;99.90;;;;;;4979095;28;20101;-84
2023/12/28 05:26:23;;;;;;;2.43;1.80;;;2.20;99.90;;;;;;4996995;28;20053;-84
2023/12/28 05:28:49;;;;;;;3.90;1.70;;;2.20;99.90;;;;;;4995799;28;20069;-85
2023/12/28 05:31:18;;;;;;;4.70;1.50;;;2.10;99.90;;;;;;4996144;28;20034;-84
2023/12/28 05:33:43;;;;;;;3.73;1.87;;;2.10;99.90;;;;;;4991531;28;20034;-85
2023/12/28 05:36:09;;;;;;;4.90;2.00;;;2.10;99.90;;;;;;4997288;28;20161;-83
2023/12/28 05:38:34;;;;;;;2.83;1.70;;;2.10;99.90;;;;;;5000216;28;20030;-84
2023/12/28 05:41:00;;;;;;;2.40;1.50;;;2.10;99.90;;;;;;4999268;28;20048;-83
2023/12/28 05:43:25;;;;;;;2.73;1.50;;;2.10;99.90;;;;;;4999462;28;20054;-83
2023/12/28 05:45:51;;;;;;;3.50;1.50;;;2.00;99.90;;;;;;4998815;28;20033;-83
2023/12/28 05:48:16;;;;;;;2.67;1.63;;;2.10;99.90;;;;;;4999413;28;20092;-83
2023/12/28 05:50:42;;;;;;;3.27;1.40;;;2.00;99.90;;;;;;4997313;28;20034;-83
2023/12/28 05:53:13;;;;;;;2.10;1.40;;;2.00;99.90;;;;;;4997999;28;20099;-83
2023/12/28 05:55:40;;;;;;;2.23;1.40;;;2.00;99.90;;;;;;4998714;28;20071;-83
2023/12/28 05:58:05;;;;;;;3.50;1.40;;;2.10;99.90;;;;;;4997303;28;20142;-84
2023/12/28 06:00:31;;;;;;;4.57;1.50;;;2.20;99.90;;;;;;4979387;28;20128;-83
2023/12/28 06:02:56;;;;;;;2.30;1.30;;;2.20;99.90;;;;;;4997833;28;20026;-82
2023/12/28 06:05:22;;;;;;;2.63;1.40;;;2.20;99.90;;;;;;4994237;28;20457;-82
2023/12/28 06:07:47;;;;;;;6.37;1.67;;;2.20;99.90;;;;;;4996985;28;20045;-82
2023/12/28 06:10:13;;;;;;;3.83;1.50;;;2.20;99.90;;;;;;4998075;28;20026;-82
2023/12/28 06:12:38;;;;;;;3.87;1.60;;;2.20;99.90;;;;;;4999911;28;20038;-82
2023/12/28 06:15:04;;;;;;;2.27;1.30;;;2.20;99.90;;;;;;4983638;28;20042;-81
2023/12/28 06:17:30;;;;;;;2.63;1.53;;;2.10;99.90;;;;;;5000021;28;20030;-82
2023/12/28 06:19:55;;;;;;;4.37;1.60;;;2.10;99.90;;;;;;4999743;28;20057;-82
2023/12/28 06:22:21;;;;;;;1.90;1.37;;;2.10;99.90;;;;;;4999284;28;20034;-82
2023/12/28 06:24:46;;;;;;;3.20;1.50;;;2.10;99.90;;;;;;4994758;28;20026;-82
2023/12/28 06:27:12;;;;;;;5.37;1.60;;;2.00;99.90;;;;;;5000606;28;20087;-82
2023/12/28 06:29:37;;;;;;;5.57;1.43;;;2.00;99.90;;;;;;4999297;28;20038;-82
2023/12/28 06:32:03;;;;;;;3.60;1.80;;;2.00;99.90;;;;;;4999234;28;20042;-82
2023/12/28 06:34:29;;;;;;;4.43;2.03;;;2.00;99.90;;;;;;4999723;28;20058;-82
2023/12/28 06:36:54;;;;;;;4.07;2.10;;;1.90;99.90;;;;;;4982571;28;20035;-82
2023/12/28 06:39:20;;;;;;;5.73;2.43;;;1.90;99.90;;;;;;4981424;28;20057;-82
2023/12/28 06:41:49;;;;;;;6.90;2.47;;;1.90;99.90;;;;;;4981857;28;20093;-82
2023/12/28 06:44:14;;;;;;;5.07;2.70;;;1.80;99.90;;;;;;4999690;28;20030;-82
2023/12/28 06:46:40;;;;;;;5.43;2.30;;;1.80;99.90;;;;;;4999271;28;20125;-81
2023/12/28 06:49:06;;;;;;;5.83;2.17;;;1.80;99.90;;;;;;4998676;28;20816;-83
2023/12/28 06:51:32;;;;;;;3.90;2.10;;;1.80;99.90;;;;;;4998635;28;20030;-81
2023/12/28 06:53:58;;;;;;;5.30;2.53;;;1.80;99.90;;;;;;5000304;28;20026;-81
2023/12/28 06:56:24;;;;;;;4.10;1.97;;;1.80;99.90;;;;;;4996262;28;20101;-80
2023/12/28 06:58:50;;;;;;;5.10;2.00;;;1.70;99.90;;;;;;4995580;28;20094;-83
2023/12/28 07:01:16;;;;;;;3.90;1.60;;;1.70;99.90;;;;;;4988483;28;20049;-82
2023/12/28 07:03:42;;;;;;;6.83;1.77;;;1.60;99.90;;;;;;4994408;28;21236;-81
2023/12/28 07:06:08;;;;;;;3.20;1.60;;;1.60;99.90;;;;;;4992605;28;20038;-81
2023/12/28 07:08:33;;;;;;;3.47;1.60;;;1.60;99.90;;;;;;4990020;28;20125;-82
2023/12/28 07:10:59;;;;;;;3.53;1.53;;;1.60;99.90;;;;;;4993253;28;20172;-82
2023/12/28 07:13:25;;;;;;;3.30;1.80;;;1.60;99.90;;;;;;4993565;28;20042;-82
2023/12/28 07:15:51;;;;;;;3.07;1.57;;;1.50;99.90;;;;;;4993731;28;20040;-81
2023/12/28 07:18:16;;;;;;;4.83;1.50;;;1.50;99.90;;;;;;4993290;28;20463;-82
2023/12/28 07:20:42;;;;;;;3.33;1.60;;;1.50;99.90;;;;;;4976807;28;20042;-81
2023/12/28 07:23:08;;;;;;;4.57;1.60;;;1.50;99.90;;;;;;4995406;28;20037;-81
2023/12/28 07:25:34;;;;;;;4.07;1.80;;;1.50;99.90;;;;;;4979672;28;20053;-83
2023/12/28 07:28:00;;;;;;;6.67;2.10;;;1.50;99.90;;;;;;4997837;28;20032;-82
2023/12/28 07:30:25;;;;;;;4.00;2.00;;;1.50;99.90;;;;;;4999383;28;20038;-82
2023/12/28 07:32:51;;;;;;;6.37;2.07;;;1.50;99.90;;;;;;4998275;28;20038;-83
2023/12/28 07:35:17;;;;;;;5.10;1.93;;;1.60;99.90;;;;;;5002579;28;20106;-83
2023/12/28 07:37:44;;;;;;;3.73;1.77;;;1.60;99.90;;;;;;5006798;28;20045;-82
2023/12/28 07:40:11;;;;;;;5.40;2.00;;;1.70;99.90;;;;;;5005908;28;20042;-82
2023/12/28 07:42:36;;;;;;;5.60;2.20;;;1.80;99.90;;;;;;5002613;28;20041;-82
2023/12/28 07:45:02;;;;;;;4.73;1.90;;;1.80;99.90;;;;;;4998820;28;20038;-83
2023/12/28 07:47:29;;;;;;;3.00;1.73;;;1.90;99.90;;;;;;4995617;28;20042;-83
2023/12/28 07:49:54;;;;;;;3.83;1.77;;;2.00;99.90;;;;;;4995671;28;20039;-83
2023/12/28 07:52:20;;;;;;;3.17;1.80;;;2.20;99.90;;;;;;4994387;28;20121;-84
2023/12/28 07:54:45;;;;;;;5.27;1.83;;;2.30;99.90;;;;;;4999114;28;20033;-83
2023/12/28 07:57:11;;;;;;;3.07;1.60;;;2.40;99.90;;;;;;4992452;28;20030;-83
2023/12/28 07:59:37;;;;;;;2.53;1.60;;;2.50;99.90;;;;;;4997618;28;20034;-83
2023/12/28 08:02:02;;;;;;;4.70;1.80;;;2.60;99.90;;;;;;4991237;28;20031;-83
2023/12/28 08:04:28;;;;;;;3.87;1.60;;;2.80;99.90;;;;;;5001779;28;20096;-82
2023/12/28 08:06:53;;;;;;;4.10;1.90;;;2.90;99.90;;;;;;4996363;28;20030;-83
2023/12/28 08:09:19;;;;;;;2.57;1.53;;;3.10;99.90;;;;;;4998475;28;20034;-83
2023/12/28 08:11:45;;;;;;;3.63;1.80;;;3.30;99.90;;;;;;4998269;28;21691;-84
2023/12/28 08:14:10;;;;;;;4.37;1.63;;;3.40;99.90;;;;;;4997188;28;20033;-83
2023/12/28 08:16:36;;;;;;;2.90;1.50;;;3.70;99.90;;;;;;4997039;28;20038;-84
2023/12/28 08:19:02;;;;;;;2.90;1.60;;;4.00;99.90;;;;;;4996818;28;20306;-83
2023/12/28 08:21:27;;;;;;;2.00;1.20;;;4.20;99.90;;;;;;4998865;28;20089;-83
2023/12/28 08:23:53;;;;;;;2.60;1.20;;;4.40;99.90;;;;;;4997942;28;20512;-83
2023/12/28 08:26:19;;;;;;;3.30;1.40;;;4.60;99.90;;;;;;4999309;28;20045;-82
2023/12/28 08:28:44;;;;;;;2.80;1.40;;;4.90;99.90;;;;;;5000096;28;20030;-82
2023/12/28 08:31:10;;;;;;;3.13;1.53;;;5.10;99.90;;;;;;5000890;28;20468;-83
2023/12/28 08:33:39;;;;;;;4.80;1.60;;;5.40;99.90;;;;;;5000445;28;20682;-83
2023/12/28 08:36:05;;;;;;;2.63;1.40;;;5.70;99.90;;;;;;4999647;28;20038;-83
2023/12/28 08:38:31;;;;;;;2.67;1.40;;;6.00;99.90;;;;;;4998425;28;21009;-83
2023/12/28 08:40:56;;;;;;;4.13;1.63;;;6.20;99.90;;;;;;4999178;28;20117;-83
2023/12/28 08:43:22;;;;;;;2.83;1.40;;;6.40;99.90;;;;;;5000655;28;20053;-83
2023/12/28 08:45:48;;;;;;;2.23;1.47;;;6.60;99.90;;;;;;5002369;28;20046;-80
2023/12/28 08:48:13;;;;;;;3.67;1.37;;;6.80;99.90;;;;;;4998977;28;20041;-80
2023/12/28 08:50:39;;;;;;;5.00;1.50;;;7.00;99.90;;;;;;4983557;28;20094;-81
2023/12/28 08:53:04;;;;;;;2.53;1.50;;;7.10;99.90;;;;;;5001582;28;20764;-81
2023/12/28 08:55:30;;;;;;;1.80;1.20;;;7.20;99.90;;;;;;5002046;28;20037;-80
2023/12/28 08:57:55;;;;;;;3.43;1.50;;;7.30;99.90;;;;;;5000956;28;20054;-81
2023/12/28 09:00:21;;;;;;;3.57;1.87;;;7.50;99.90;;;;;;5002048;28;20038;-81
2023/12/28 09:02:46;;;;;;;4.47;1.90;;;7.50;99.90;;;;;;5001481;28;20985;-80
2023/12/28 09:05:12;;;;;;;7.30;2.10;;;7.60;99.90;;;;;;5002153;28;20073;-81
2023/12/28 09:07:42;;;;;;;2.90;1.60;;;7.80;99.90;;;;;;4999918;28;20038;-83
2023/12/28 09:10:10;;;;;;;2.00;1.27;;;7.90;99.90;;;;;;4999851;28;20122;-81
2023/12/28 09:12:35;;;;;;;2.80;1.50;;;8.00;99.90;;;;;;5001324;28;20474;-81
2023/12/28 09:15:01;;;;;;;2.10;1.20;;;8.10;99.90;;;;;;5000187;28;20026;-81
2023/12/28 09:17:26;;;;;;;1.77;1.30;;;8.10;99.90;;;;;;4998209;28;20112;-81
2023/12/28 09:19:52;;;;;;;1.97;1.30;;;8.20;99.90;;;;;;4999809;28;20043;-82
2023/12/28 09:22:17;;;;;;;2.07;1.37;;;8.30;99.90;;;;;;4999614;28;20492;-82
2023/12/28 09:24:43;;;;;;;5.23;1.57;;;8.40;99.90;;;;;;4999696;28;20863;-82
2023/12/28 09:27:09;;;;;;;4.80;1.47;;;8.50;99.90;;;;;;4998475;28;20030;-81
2023/12/28 09:29:35;;;;;;;6.30;1.70;;;8.50;99.90;;;;;;5000869;28;20093;-82
2023/12/28 09:32:00;;;;;;;2.53;1.30;;;8.70;99.90;;;;;;4999526;28;20088;-82
2023/12/28 09:34:26;;;;;;;3.17;1.27;;;8.80;99.90;;;;;;4999433;28;20034;-82
2023/12/28 09:36:51;;;;;;;2.70;1.30;;;9.00;99.90;;;;;;4999710;28;20035;-82
2023/12/28 09:39:17;;;;;;;2.73;1.40;;;9.10;99.90;;;;;;4998225;28;20073;-82
2023/12/28 09:41:52;;;;;;;2.10;1.30;;;9.20;99.90;;;;;;4998297;28;20045;-82
2023/12/28 09:44:19;;;;;;;2.88;1.30;;;9.30;99.90;;;;;;4997974;28;20102;-82
2023/12/28 09:46:46;;;;;;;3.47;1.20;;;9.50;99.90;;;;;;4997837;28;20031;-82
2023/12/28 09:49:11;;;;;;;2.20;1.30;;;9.60;99.90;;;;;;4996206;28;20157;-82
2023/12/28 09:51:37;;;;;;;2.40;1.23;;;9.70;99.90;;;;;;4994544;28;20034;-81
2023/12/28 09:54:04;;;;;;;1.90;1.20;;;9.70;99.90;;;;;;4994604;28;20049;-73
2023/12/28 09:56:30;;;;;;;2.77;1.53;;;9.80;99.90;;;;;;4987149;28;20062;-85
2023/12/28 09:58:57;;;;;;;1.80;1.30;;;9.90;99.90;;;;;;4994516;28;20685;-85
2023/12/28 10:01:23;;;;;;;2.00;1.33;;;10.00;99.90;;;;;;4995638;28;20026;-85
2023/12/28 10:03:48;;;;;;;4.43;1.33;;;10.10;99.90;;;;;;4995408;28;21475;-84
2023/12/28 10:06:15;;;;;;;2.00;1.30;;;10.10;99.90;;;;;;4992208;28;20033;-84
2023/12/28 10:08:48;;;;;;;3.23;1.40;;;10.20;99.90;;;;;;4993505;28;21499;-84
2023/12/28 10:11:18;;;;;;;2.50;1.47;;;10.40;99.90;;;;;;4998469;28;20030;-87
2023/12/28 10:13:44;;;;;;;2.13;1.13;;;10.40;99.90;;;;;;4980066;28;20034;-85
2023/12/28 10:16:13;;;;;;;2.40;1.20;;;10.60;99.90;;;;;;4983086;28;20026;-84
2023/12/28 10:18:42;;;;;;;3.37;1.20;;;10.60;99.90;;;;;;4994240;28;20034;-83
2023/12/28 10:21:08;;;;;;;4.57;1.23;;;10.70;99.90;;;;;;4998625;28;20514;-82
2023/12/28 10:23:34;;;;;;;1.93;1.17;;;10.80;99.90;;;;;;4999745;28;20506;-83
2023/12/28 10:26:00;;;;;;;2.17;1.10;;;10.80;99.90;;;;;;4997428;28;20093;-84
2023/12/28 10:28:27;;;;;;;2.87;1.43;;;10.90;99.90;;;;;;4996082;28;20077;-83
2023/12/28 10:30:58;;;;;;;3.17;1.33;;;10.90;99.90;;;;;;4977694;28;20197;-82
2023/12/28 10:33:23;;;;;;;2.00;1.10;;;10.90;99.90;;;;;;4994842;28;20045;-83
2023/12/28 10:35:54;;;;;;;2.13;1.20;;;11.00;99.90;;;;;;4993597;28;20026;-83
2023/12/28 10:38:20;;;;;;;3.23;1.43;;;11.00;99.90;;;;;;4995409;28;20038;-83
2023/12/28 10:40:48;;;;;;;4.13;1.97;;;11.00;99.90;;;;;;4995629;28;20542;-83
2023/12/28 10:43:16;;;;;;;2.03;1.33;;;11.10;99.90;;;;;;4994963;28;20030;-82
2023/12/28 10:45:46;;;;;;;2.60;1.20;;;11.10;99.90;;;;;;4996501;28;20704;-82
2023/12/28 10:48:12;;;;;;;1.87;1.30;;;11.10;99.90;;;;;;4996757;28;20030;-82
2023/12/28 10:50:40;;;;;;;9.00;1.53;;;11.10;99.90;;;;;;4994818;28;20032;-82
2023/12/28 10:53:19;;;;;;;2.30;1.23;;;11.10;99.90;;;;;;4981344;28;20041;-82
2023/12/28 10:56:21;;;;;;;5.57;1.83;;;11.10;99.90;;;;;;4996330;28;20030;-83
2023/12/28 10:58:48;;;;;;;1.70;1.10;;;11.10;99.90;;;;;;4980939;28;20026;-82
2023/12/28 11:01:22;;;;;;;2.33;1.37;;;11.10;99.90;;;;;;4997838;28;20906;-82
2023/12/28 11:03:57;;;;;;;2.33;1.38;;;11.10;99.90;;;;;;4979576;28;20190;-82
2023/12/28 11:06:26;;;;;;;1.90;1.20;;;11.20;99.90;;;;;;4996746;28;20026;-83
2023/12/28 11:08:54;;;;;;;2.10;1.30;;;11.10;99.90;;;;;;4997357;28;20038;-83
2023/12/28 11:11:21;;;;;;;2.67;1.30;;;11.10;99.90;;;;;;4983998;28;20033;-82
2023/12/28 11:13:48;;;;;;;3.27;1.13;;;11.10;99.90;;;;;;5001187;28;20058;-83
2023/12/28 11:16:14;;;;;;;4.70;1.20;;;11.10;99.90;;;;;;5001744;28;20034;-82
2023/12/28 11:18:40;;;;;;;2.60;1.23;;;11.10;99.90;;;;;;5000839;28;20088;-83
2023/12/28 11:21:06;;;;;;;3.07;1.50;;;11.10;99.90;;;;;;5001763;28;20038;-83
2023/12/28 11:23:32;;;;;;;2.70;1.50;;;11.20;99.90;;;;;;5002822;28;20050;-82
2023/12/28 11:25:58;;;;;;;2.40;1.30;;;11.20;99.90;;;;;;5002967;28;20828;-82
2023/12/28 11:28:24;;;;;;;3.07;1.40;;;11.20;99.90;;;;;;5002577;28;20039;-82
2023/12/28 11:30:51;;;;;;;3.07;1.60;;;11.30;99.90;;;;;;5002242;28;20053;-82
2023/12/28 11:33:17;;;;;;;2.50;1.50;;;11.30;99.90;;;;;;4999320;28;20057;-83
2023/12/28 11:35:43;;;;;;;3.10;1.43;;;11.30;99.90;;;;;;4997625;28;20026;-81
2023/12/28 11:38:11;;;;;;;2.50;1.40;;;11.30;99.90;;;;;;4997860;28;20089;-83
2023/12/28 11:40:46;;;;;;;2.63;1.60;;;11.40;99.90;;;;;;4996775;28;20035;-82
2023/12/28 11:43:18;;;;;;;3.13;1.50;;;11.40;99.90;;;;;;4998782;28;20033;-82
2023/12/28 11:45:51;;;;;;;5.10;2.80;;;11.40;99.90;;;;;;4998647;28;20145;-82
2023/12/28 11:48:25;;;;;;;3.13;1.50;;;11.50;99.90;;;;;;4978590;28;20053;-80
2023/12/28 11:50:56;;;;;;;1.70;1.00;;;11.50;99.90;;;;;;4980005;28;21322;-82
2023/12/28 11:53:22;;;;;;;1.77;1.10;;;11.60;99.90;;;;;;4997400;28;20050;-83
2023/12/28 11:55:47;;;;;;;2.70;1.47;;;11.60;99.90;;;;;;4999722;28;20746;-83
2023/12/28 11:58:13;;;;;;;1.80;1.20;;;11.60;99.90;;;;;;4990702;28;20026;-83
2023/12/28 12:00:40;;;;;;;3.97;1.23;;;11.70;99.90;;;;;;4995275;28;20034;-83
2023/12/28 12:03:06;;;;;;;4.50;1.30;;;11.60;99.90;;;;;;4996587;28;20033;-83
2023/12/28 12:05:31;;;;;;;1.63;1.07;;;11.60;99.90;;;;;;4997494;28;20033;-84
2023/12/28 12:07:57;;;;;;;2.23;1.20;;;11.60;99.90;;;;;;4998447;28;20045;-84
2023/12/28 12:10:23;;;;;;;3.03;1.60;;;11.60;99.90;;;;;;4997792;28;20045;-83
2023/12/28 12:12:52;;;;;;;9.38;1.40;;;11.50;99.90;;;;;;4977349;28;20121;-86
2023/12/28 12:15:18;;;;;;;3.50;1.20;;;11.50;99.90;;;;;;4988924;28;20030;-75
2023/12/28 12:17:44;;;;;;;4.00;1.50;;;11.40;99.90;;;;;;4994455;28;20037;-85
2023/12/28 12:20:10;;;;;;;3.10;1.20;;;11.30;99.90;;;;;;4996989;28;20902;-83
2023/12/28 12:22:35;;;;;;;2.67;1.30;;;11.30;99.90;;;;;;4998467;28;20031;-81
2023/12/28 12:25:05;;;;;;;2.70;1.37;;;11.20;99.90;;;;;;4998592;28;20133;-82
2023/12/28 12:27:30;;;;;;;2.23;1.30;;;11.20;99.90;;;;;;4993576;28;20469;-82
2023/12/28 12:29:56;;;;;;;2.03;1.30;;;11.10;99.90;;;;;;4978854;28;20022;-83
2023/12/28 12:32:22;;;;;;;1.60;1.20;;;11.10;99.90;;;;;;4996064;28;20022;-83
2023/12/28 12:34:48;;;;;;;3.10;1.20;;;11.10;99.90;;;;;;4999777;28;20052;-83
2023/12/28 12:37:14;;;;;;;1.90;1.20;;;11.10;99.90;;;;;;4997172;28;20485;-83
2023/12/28 12:39:40;;;;;;;3.57;1.50;;;11.10;99.90;;;;;;4996984;28;20034;-83
2023/12/28 12:42:06;;;;;;;4.70;1.27;;;11.10;99.90;;;;;;4994659;28;20030;-83
2023/12/28 12:44:32;;;;;;;4.43;1.47;;;11.10;99.90;;;;;;5002931;28;20041;-82
2023/12/28 12:46:59;;;;;;;2.97;1.30;;;11.10;99.90;;;;;;4999910;28;20026;-83
2023/12/28 12:49:25;;;;;;;3.00;1.53;;;11.00;99.90;;;;;;4997665;28;20045;-82
2023/12/28 12:51:51;;;;;;;2.37;1.37;;;11.10;99.90;;;;;;4997906;28;20551;-82